createdAt,value
2019-05-18T00:02:23.162Z,3.20
2019-05-18T00:04:53.596Z,3.17
2019-05-18T00:07:24.009Z,3.00
2019-05-18T00:09:54.456Z,2.97
2019-05-18T00:12:24.890Z,2.93
2019-05-18T00:14:55.293Z,2.80
2019-05-18T00:17:25.745Z,2.73
2019-05-18T00:19:56.159Z,3.20
2019-05-18T00:22:26.601Z,2.73
2019-05-18T00:24:56.990Z,3.00
2019-05-18T00:27:27.396Z,2.90
2019-05-18T00:29:57.807Z,3.00
2019-05-18T00:32:28.273Z,2.50
2019-05-18T00:34:58.702Z,2.73
2019-05-18T00:37:29.123Z,3.00
2019-05-18T00:39:59.549Z,3.43
2019-05-18T00:42:29.801Z,2.83
2019-05-18T00:45:00.217Z,2.50
2019-05-18T00:47:40.935Z,2.67
2019-05-18T00:50:02.775Z,2.90
2019-05-18T00:52:33.158Z,2.77
2019-05-18T00:55:03.571Z,2.70
2019-05-18T00:57:33.874Z,2.87
2019-05-18T01:00:05.169Z,2.97
2019-05-18T01:02:35.625Z,2.40
2019-05-18T01:05:06.481Z,2.53
2019-05-18T01:07:36.822Z,2.60
2019-05-18T01:10:07.858Z,2.50
2019-05-18T01:12:38.277Z,2.70
2019-05-18T01:15:09.749Z,2.80
2019-05-18T01:17:40.151Z,2.83
2019-05-18T01:20:10.846Z,2.90
2019-05-18T01:22:41.308Z,2.53
2019-05-18T01:25:12.078Z,2.70
2019-05-18T01:27:42.504Z,2.50
2019-05-18T01:30:13.596Z,3.07
2019-05-18T01:32:44.006Z,2.90
2019-05-18T01:35:14.477Z,2.73
2019-05-18T01:37:44.926Z,2.90
2019-05-18T01:40:16.206Z,2.73
2019-05-18T01:42:46.655Z,2.90
2019-05-18T01:45:18.029Z,2.93
2019-05-18T01:47:48.435Z,2.83
2019-05-18T01:50:18.960Z,2.93
2019-05-18T01:52:49.445Z,3.00
2019-05-18T01:55:19.913Z,2.83
2019-05-18T01:57:50.306Z,3.27
2019-05-18T02:00:20.909Z,3.10
2019-05-18T02:02:51.217Z,2.93
2019-05-18T02:05:21.667Z,2.90
2019-05-18T02:07:52.098Z,3.10
2019-05-18T02:10:22.535Z,3.40
2019-05-18T02:12:52.791Z,3.30
2019-05-18T02:15:23.205Z,3.60
2019-05-18T02:17:53.638Z,3.33
2019-05-18T02:20:23.984Z,3.03
2019-05-18T02:22:54.447Z,3.47
2019-05-18T02:25:24.736Z,3.70
2019-05-18T02:27:55.237Z,3.80
2019-05-18T02:30:25.561Z,3.50
2019-05-18T02:32:55.994Z,3.30
2019-05-18T02:35:26.394Z,3.30
2019-05-18T02:38:13.520Z,3.87
2019-05-18T02:40:44.249Z,3.70
2019-05-18T02:43:14.628Z,3.13
2019-05-18T02:45:45.134Z,3.80
2019-05-18T02:48:15.478Z,3.57
2019-05-18T02:50:45.937Z,3.50
2019-05-18T02:53:16.358Z,3.83
2019-05-18T02:55:46.760Z,3.20
2019-05-18T02:58:17.189Z,3.37
2019-05-18T03:00:47.846Z,3.43
2019-05-18T03:03:18.236Z,3.30
2019-05-18T03:05:48.671Z,3.30
2019-05-18T03:08:18.958Z,3.80
2019-05-18T03:10:49.272Z,3.33
2019-05-18T03:13:19.729Z,3.43
2019-05-18T03:15:50.116Z,2.90
2019-05-18T03:18:20.399Z,3.30
2019-05-18T03:20:50.704Z,3.50
2019-05-18T03:23:21.021Z,3.90
2019-05-18T03:25:51.288Z,3.90
2019-05-18T03:28:21.644Z,3.77
2019-05-18T03:30:51.977Z,4.00
2019-05-18T03:33:28.596Z,4.13
2019-05-18T03:35:54.529Z,4.00
2019-05-18T03:38:24.942Z,4.00
2019-05-18T03:40:55.354Z,3.70
2019-05-18T03:43:25.776Z,4.03
2019-05-18T03:45:56.534Z,4.10
2019-05-18T03:48:26.956Z,3.83
2019-05-18T03:50:57.368Z,4.40
2019-05-18T03:53:27.817Z,3.80
2019-05-18T03:55:58.245Z,4.03
2019-05-18T03:58:28.698Z,3.47
2019-05-18T04:00:59.015Z,3.93
2019-05-18T04:03:29.332Z,5.03
2019-05-18T04:05:59.638Z,4.37
2019-05-18T04:08:30.043Z,4.80
2019-05-18T04:11:00.404Z,4.43
2019-05-18T04:13:30.707Z,4.83
2019-05-18T04:16:00.955Z,4.70
2019-05-18T04:18:31.388Z,4.73
2019-05-18T04:21:07.237Z,4.37
2019-05-18T04:23:37.709Z,4.47
2019-05-18T04:26:08.060Z,4.80
2019-05-18T04:28:38.438Z,4.47
2019-05-18T04:31:08.932Z,4.30
2019-05-18T04:33:39.229Z,4.70
2019-05-18T04:36:09.814Z,4.27
2019-05-18T04:38:40.219Z,4.63
2019-05-18T04:41:10.653Z,4.90
2019-05-18T04:43:41.097Z,4.67
2019-05-18T04:46:11.496Z,4.57
2019-05-18T04:48:41.987Z,4.90
2019-05-18T04:51:12.362Z,5.10
2019-05-18T04:53:42.722Z,4.70
2019-05-18T04:56:13.075Z,4.70
2019-05-18T04:58:43.555Z,4.30
2019-05-18T05:01:14.015Z,4.63
2019-05-18T05:03:44.505Z,4.43
2019-05-18T05:06:15.012Z,4.60
2019-05-18T05:08:45.422Z,5.43
2019-05-18T05:11:15.870Z,5.23
2019-05-18T05:13:46.209Z,4.87
2019-05-18T05:16:16.667Z,5.67
2019-05-18T05:18:47.035Z,5.53
2019-05-18T05:21:17.521Z,5.63
2019-05-18T05:23:47.926Z,5.47
2019-05-18T05:26:18.325Z,5.37
2019-05-18T05:28:48.812Z,6.80
2019-05-18T05:31:19.259Z,7.27
2019-05-18T05:33:49.628Z,7.13
2019-05-18T05:36:19.934Z,7.80
2019-05-18T05:38:50.383Z,7.10
2019-05-18T05:41:20.708Z,7.53
2019-05-18T05:43:51.025Z,8.03
2019-05-18T05:46:21.447Z,7.40
2019-05-18T05:48:51.842Z,7.53
2019-05-18T05:51:22.178Z,7.10
2019-05-18T05:53:52.572Z,8.03
2019-05-18T05:56:22.993Z,8.33
2019-05-18T05:58:53.284Z,7.63
2019-05-18T06:01:23.780Z,7.00
2019-05-18T06:03:54.251Z,7.30
2019-05-18T06:06:24.699Z,7.57
2019-05-18T06:08:55.092Z,6.77
2019-05-18T06:11:25.478Z,7.40
2019-05-18T06:13:55.950Z,6.93
2019-05-18T06:16:26.376Z,7.67
2019-05-18T06:18:56.830Z,6.93
2019-05-18T06:21:27.173Z,8.00
2019-05-18T06:23:57.614Z,7.17
2019-05-18T06:26:28.063Z,7.63
2019-05-18T06:28:58.547Z,8.80
2019-05-18T06:31:29.028Z,8.17
2019-05-18T06:33:59.516Z,8.20
2019-05-18T06:36:30.005Z,9.07
2019-05-18T06:39:00.413Z,8.50
2019-05-18T06:41:30.669Z,7.47
2019-05-18T06:44:01.167Z,9.00
2019-05-18T06:46:31.463Z,8.20
2019-05-18T06:49:01.885Z,7.70
2019-05-18T06:51:32.293Z,7.50
2019-05-18T06:54:02.850Z,8.30
2019-05-18T06:56:35.044Z,8.23
2019-05-18T06:59:05.458Z,7.40
2019-05-18T07:01:35.890Z,7.90
2019-05-18T07:04:06.338Z,7.73
2019-05-18T07:06:36.648Z,8.37
2019-05-18T07:09:13.617Z,8.10
2019-05-18T07:11:40.331Z,7.37
2019-05-18T07:14:23.568Z,8.07
2019-05-18T07:16:42.934Z,8.53
2019-05-18T07:19:13.505Z,8.70
2019-05-18T07:21:43.819Z,8.30
2019-05-18T07:24:14.248Z,9.13
2019-05-18T07:26:44.579Z,8.37
2019-05-18T07:29:15.084Z,9.07
2019-05-18T07:31:45.418Z,7.53
2019-05-18T07:34:15.961Z,8.03
2019-05-18T07:36:46.412Z,7.90
2019-05-18T07:39:16.714Z,8.03
2019-05-18T07:41:47.399Z,9.33
2019-05-18T07:44:17.857Z,8.73
2019-05-18T07:46:48.272Z,8.17
2019-05-18T07:49:18.662Z,7.97
2019-05-18T07:51:49.164Z,7.70
2019-05-18T07:54:19.607Z,8.67
2019-05-18T07:56:50.000Z,8.27
2019-05-18T07:59:22.967Z,8.97
2019-05-18T08:01:52.663Z,8.10
2019-05-18T08:04:23.087Z,8.03
2019-05-18T08:06:53.521Z,8.20
2019-05-18T08:09:23.894Z,8.57
2019-05-18T08:12:13.389Z,7.90
2019-05-18T08:14:43.844Z,8.17
2019-05-18T08:17:14.146Z,8.40
2019-05-18T08:19:44.608Z,11.83
2019-05-18T08:22:14.944Z,9.47
2019-05-18T08:24:45.289Z,11.17
2019-05-18T08:27:15.776Z,10.37
2019-05-18T08:29:46.179Z,10.80
2019-05-18T08:32:16.708Z,9.27
2019-05-18T08:34:47.135Z,9.40
2019-05-18T08:37:17.570Z,9.23
2019-05-18T08:39:47.967Z,10.17
2019-05-18T08:42:18.422Z,13.57
2019-05-18T08:44:48.855Z,14.33
2019-05-18T08:47:19.305Z,17.17
2019-05-18T08:49:49.786Z,9.93
2019-05-18T08:52:20.739Z,13.87
2019-05-18T08:54:51.204Z,11.40
2019-05-18T08:57:21.691Z,13.90
2019-05-18T08:59:52.129Z,10.87
2019-05-18T09:02:22.535Z,10.20
2019-05-18T09:04:52.930Z,10.97
2019-05-18T09:07:23.378Z,10.27
2019-05-18T09:09:53.886Z,11.43
2019-05-18T09:12:24.182Z,10.40
2019-05-18T09:14:54.567Z,13.10
2019-05-18T09:17:24.924Z,12.20
2019-05-18T09:19:55.287Z,10.37
2019-05-18T09:22:25.657Z,10.90
2019-05-18T09:24:56.099Z,9.70
2019-05-18T09:27:26.550Z,10.57
2019-05-18T09:29:56.961Z,11.50
2019-05-18T09:32:27.398Z,10.97
2019-05-18T09:34:57.802Z,11.27
2019-05-18T09:37:28.268Z,11.30
2019-05-18T09:39:58.619Z,10.67
2019-05-18T09:42:29.174Z,9.87
2019-05-18T09:44:59.504Z,10.73
2019-05-18T09:47:29.964Z,11.43
2019-05-18T09:50:00.443Z,10.70
2019-05-18T09:52:44.395Z,12.23
2019-05-18T09:55:03.053Z,10.07
2019-05-18T09:57:33.343Z,11.97
2019-05-18T10:00:04.024Z,10.73
2019-05-18T10:02:34.423Z,11.93
2019-05-18T10:05:05.066Z,11.77
2019-05-18T10:07:35.505Z,10.37
2019-05-18T10:10:06.429Z,12.30
2019-05-18T10:12:36.880Z,9.97
2019-05-18T10:15:07.827Z,10.20
2019-05-18T10:17:38.312Z,10.93
2019-05-18T10:20:09.622Z,11.07
2019-05-18T10:22:53.540Z,10.47
2019-05-18T10:25:14.787Z,14.03
2019-05-18T10:27:45.181Z,15.67
2019-05-18T10:30:15.954Z,14.43
2019-05-18T10:32:46.419Z,14.20
2019-05-18T10:35:17.363Z,12.23
2019-05-18T10:37:47.679Z,13.30
2019-05-18T10:40:18.492Z,13.90
2019-05-18T10:42:48.918Z,13.57
2019-05-18T10:45:19.677Z,13.47
2019-05-18T10:47:50.085Z,13.10
2019-05-18T10:50:20.522Z,13.47
2019-05-18T10:52:50.841Z,14.70
2019-05-18T10:55:21.296Z,13.67
2019-05-18T10:57:51.796Z,13.50
2019-05-18T11:00:22.185Z,13.93
2019-05-18T11:02:52.841Z,12.93
2019-05-18T11:05:24.931Z,12.23
2019-05-18T11:07:55.322Z,11.47
2019-05-18T11:10:26.412Z,24.87
2019-05-18T11:12:56.844Z,18.87
2019-05-18T11:15:27.388Z,13.67
2019-05-18T11:17:57.789Z,26.43
2019-05-18T11:20:28.313Z,12.77
2019-05-18T11:22:58.684Z,12.77
2019-05-18T11:25:29.180Z,11.67
2019-05-18T11:27:59.642Z,11.30
2019-05-18T11:30:30.141Z,9.50
2019-05-18T11:33:00.668Z,9.60
2019-05-18T11:35:31.059Z,10.03
2019-05-18T11:38:01.415Z,9.53
2019-05-18T11:40:31.834Z,8.93
2019-05-18T11:43:02.272Z,7.27
2019-05-18T11:45:33.107Z,5.77
2019-05-18T11:48:03.473Z,4.63
2019-05-18T11:50:33.935Z,5.23
2019-05-18T11:53:04.227Z,5.60
2019-05-18T11:55:34.740Z,4.37
2019-05-18T11:58:05.275Z,5.57
2019-05-18T12:00:35.780Z,5.50
2019-05-18T12:03:06.238Z,5.27
2019-05-18T12:05:36.720Z,4.60
2019-05-18T12:08:07.032Z,4.50
2019-05-18T12:10:37.489Z,3.63
2019-05-18T12:13:07.951Z,4.33
2019-05-18T12:15:38.342Z,3.87
2019-05-18T12:18:08.765Z,4.47
2019-05-18T12:20:39.380Z,3.30
2019-05-18T12:23:09.648Z,5.20
2019-05-18T12:25:40.070Z,4.27
2019-05-18T12:28:10.488Z,4.30
2019-05-18T12:30:41.022Z,4.33
2019-05-18T12:33:11.477Z,4.63
2019-05-18T12:35:41.936Z,3.37
2019-05-18T12:38:12.280Z,3.90
2019-05-18T12:40:42.616Z,3.33
2019-05-18T12:43:13.087Z,3.40
2019-05-18T12:45:43.542Z,3.70
2019-05-18T12:48:15.063Z,3.60
2019-05-18T12:50:45.485Z,3.80
2019-05-18T12:53:17.720Z,2.80
2019-05-18T12:55:48.140Z,2.70
2019-05-18T12:58:18.559Z,2.70
2019-05-18T13:00:49.001Z,3.33
2019-05-18T13:03:19.447Z,2.40
2019-05-18T13:05:49.809Z,2.70
2019-05-18T13:08:20.256Z,2.87
2019-05-18T13:10:50.635Z,3.17
2019-05-18T13:13:21.035Z,2.00
2019-05-18T13:15:51.478Z,2.65
2019-05-18T13:18:21.856Z,2.27
2019-05-18T13:20:52.337Z,3.07
2019-05-18T13:23:22.822Z,2.77
2019-05-18T13:25:53.157Z,2.40
2019-05-18T13:28:23.535Z,2.10
2019-05-18T13:30:53.957Z,2.13
2019-05-18T13:33:24.417Z,2.40
2019-05-18T13:35:54.802Z,2.90
2019-05-18T13:38:25.231Z,2.40
2019-05-18T13:40:55.699Z,2.30
2019-05-18T13:43:26.149Z,2.80
2019-05-18T13:45:56.597Z,2.73
2019-05-18T13:48:26.999Z,2.13
2019-05-18T13:50:57.488Z,2.80
2019-05-18T13:53:27.857Z,2.70
2019-05-18T13:55:58.291Z,2.70
2019-05-18T13:58:28.780Z,2.23
2019-05-18T14:00:59.294Z,2.40
2019-05-18T14:03:29.782Z,2.60
2019-05-18T14:06:00.264Z,2.00
2019-05-18T14:08:30.763Z,1.87
2019-05-18T14:11:01.135Z,1.47
2019-05-18T14:13:31.515Z,2.23
2019-05-18T14:16:01.910Z,1.97
2019-05-18T14:18:32.373Z,2.30
2019-05-18T14:21:02.808Z,2.17
2019-05-18T14:23:33.268Z,1.70
2019-05-18T14:26:03.737Z,1.70
2019-05-18T14:28:34.205Z,1.40
2019-05-18T14:31:04.654Z,1.60
2019-05-18T14:33:34.956Z,1.50
2019-05-18T14:36:05.372Z,1.50
2019-05-18T14:38:35.741Z,1.70
2019-05-18T14:41:06.226Z,1.77
2019-05-18T14:43:36.609Z,1.57
2019-05-18T14:46:07.016Z,1.50
2019-05-18T14:48:37.448Z,1.67
2019-05-18T14:51:07.789Z,2.10
2019-05-18T14:53:38.177Z,1.70
2019-05-18T14:56:08.657Z,1.30
2019-05-18T14:58:39.091Z,1.87
2019-05-18T15:01:09.501Z,1.40
2019-05-18T15:03:39.950Z,1.40
2019-05-18T15:06:10.479Z,1.60
2019-05-18T15:08:40.933Z,1.50
2019-05-18T15:11:11.378Z,1.73
2019-05-18T15:13:41.865Z,1.60
2019-05-18T15:16:12.357Z,2.00
2019-05-18T15:18:42.857Z,1.60
2019-05-18T15:21:13.268Z,1.50
2019-05-18T15:23:43.692Z,1.10
2019-05-18T15:26:14.265Z,1.20
2019-05-18T15:28:44.717Z,1.70
2019-05-18T15:31:15.153Z,1.97
2019-05-18T15:33:45.647Z,1.70
2019-05-18T15:36:16.053Z,1.30
2019-05-18T15:38:46.450Z,1.10
2019-05-18T15:41:16.980Z,1.70
2019-05-18T15:43:47.464Z,1.33
2019-05-18T15:46:17.925Z,1.40
2019-05-18T15:48:48.358Z,1.40
2019-05-18T15:51:18.767Z,1.63
2019-05-18T15:53:49.199Z,1.30
2019-05-18T15:56:19.592Z,1.47
2019-05-18T15:58:49.894Z,1.50
2019-05-18T16:01:20.273Z,0.90
2019-05-18T16:03:50.671Z,1.23
2019-05-18T16:06:21.163Z,1.10
2019-05-18T16:08:51.483Z,1.07
2019-05-18T16:11:21.890Z,1.10
2019-05-18T16:13:52.407Z,1.30
2019-05-18T16:16:41.889Z,2.13
2019-05-18T16:19:12.328Z,1.30
2019-05-18T16:21:42.651Z,1.40
2019-05-18T16:24:13.087Z,1.10
2019-05-18T16:26:43.418Z,1.23
2019-05-18T16:29:13.855Z,2.20
2019-05-18T16:31:44.176Z,1.30
2019-05-18T16:34:14.610Z,1.10
2019-05-18T16:36:45.068Z,1.30
2019-05-18T16:39:15.472Z,2.00
2019-05-18T16:41:45.896Z,1.00
2019-05-18T16:44:16.314Z,1.30
2019-05-18T16:46:46.763Z,1.10
2019-05-18T16:49:17.190Z,1.27
2019-05-18T16:51:47.520Z,1.10
2019-05-18T16:54:17.937Z,1.10
2019-05-18T16:56:48.353Z,1.20
2019-05-18T16:59:18.847Z,1.20
2019-05-18T17:01:49.275Z,0.97
2019-05-18T17:04:19.571Z,1.03
2019-05-18T17:06:50.036Z,1.03
2019-05-18T17:09:21.755Z,1.20
2019-05-18T17:11:52.238Z,1.20
2019-05-18T17:14:22.636Z,1.30
2019-05-18T17:16:53.033Z,1.30
2019-05-18T17:19:23.493Z,1.40
2019-05-18T17:21:54.274Z,1.23
2019-05-18T17:24:24.685Z,1.10
2019-05-18T17:26:55.122Z,1.20
2019-05-18T17:29:25.498Z,1.63
2019-05-18T17:31:55.940Z,1.10
2019-05-18T17:34:26.301Z,1.10
2019-05-18T17:36:56.657Z,1.30
2019-05-18T17:39:26.987Z,1.10
2019-05-18T17:41:57.435Z,1.20
2019-05-18T17:44:27.845Z,1.40
2019-05-18T17:46:58.281Z,1.77
2019-05-18T17:49:28.696Z,1.37
2019-05-18T17:51:59.177Z,1.33
2019-05-18T17:54:29.620Z,1.57
2019-05-18T17:57:07.936Z,1.50
2019-05-18T17:59:32.131Z,1.70
2019-05-18T18:02:02.601Z,1.90
2019-05-18T18:04:32.929Z,1.80
2019-05-18T18:07:03.421Z,1.83
2019-05-18T18:09:33.860Z,2.03
2019-05-18T18:12:04.341Z,2.13
2019-05-18T18:14:53.929Z,2.13
2019-05-18T18:17:24.354Z,2.30
2019-05-18T18:19:54.785Z,2.70
2019-05-18T18:22:25.282Z,2.30
2019-05-18T18:24:55.796Z,2.13
2019-05-18T18:27:29.640Z,2.47
2019-05-18T18:29:58.391Z,2.13
2019-05-18T18:32:28.862Z,2.27
2019-05-18T18:34:59.281Z,2.40
2019-05-18T18:37:29.742Z,2.30
2019-05-18T18:40:00.232Z,2.50
2019-05-18T18:42:30.717Z,2.40
2019-05-18T18:45:01.135Z,2.33
2019-05-18T18:47:31.410Z,2.33
2019-05-18T18:50:01.792Z,1.97
2019-05-18T18:52:32.206Z,2.23
2019-05-18T18:55:02.682Z,2.03
2019-05-18T18:57:41.330Z,2.20
2019-05-18T19:00:07.080Z,2.00
2019-05-18T19:02:37.490Z,2.20
2019-05-18T19:05:08.715Z,2.13
2019-05-18T19:07:39.081Z,2.60
2019-05-18T19:10:09.743Z,2.70
2019-05-18T19:12:40.180Z,2.83
2019-05-18T19:15:11.522Z,2.87
2019-05-18T19:17:41.908Z,2.93
2019-05-18T19:20:13.183Z,2.90
2019-05-18T19:22:43.558Z,2.90
2019-05-18T19:25:14.225Z,3.10
2019-05-18T19:27:54.603Z,2.77
2019-05-18T19:30:17.533Z,2.97
2019-05-18T19:32:48.026Z,3.20
2019-05-18T19:35:18.404Z,2.87
2019-05-18T19:37:48.883Z,2.97
2019-05-18T19:40:19.599Z,3.10
2019-05-18T19:42:50.004Z,2.87
2019-05-18T19:45:20.486Z,2.40
2019-05-18T19:47:50.969Z,2.40
2019-05-18T19:50:21.382Z,2.40
2019-05-18T19:52:51.803Z,2.20
2019-05-18T19:55:22.306Z,2.47
2019-05-18T19:57:52.871Z,2.17
2019-05-18T20:00:23.752Z,2.00
2019-05-18T20:02:54.118Z,2.33
2019-05-18T20:05:24.489Z,2.37
2019-05-18T20:07:54.945Z,2.37
2019-05-18T20:10:25.509Z,2.27
2019-05-18T20:12:55.980Z,2.10
2019-05-18T20:15:26.486Z,2.23
2019-05-18T20:17:57.024Z,2.17
2019-05-18T20:20:27.455Z,2.50
2019-05-18T20:22:57.868Z,2.23
2019-05-18T20:25:28.158Z,2.53
2019-05-18T20:27:58.621Z,2.30
2019-05-18T20:30:29.001Z,2.57
2019-05-18T20:32:59.721Z,2.50
2019-05-18T20:35:30.141Z,3.00
2019-05-18T20:38:00.556Z,2.50
2019-05-18T20:40:30.989Z,2.87
2019-05-18T20:43:01.457Z,2.70
2019-05-18T20:45:32.420Z,2.70
2019-05-18T20:48:02.913Z,2.80
2019-05-18T20:50:33.334Z,2.50
2019-05-18T20:53:03.667Z,2.90
2019-05-18T20:55:34.109Z,3.03
2019-05-18T20:58:04.652Z,2.90
2019-05-18T21:00:38.300Z,2.57
2019-05-18T21:03:07.222Z,2.63
2019-05-18T21:05:37.658Z,2.97
2019-05-18T21:08:08.018Z,2.57
2019-05-18T21:10:38.367Z,2.17
2019-05-18T21:13:08.719Z,2.43
2019-05-18T21:15:39.120Z,2.40
2019-05-18T21:18:09.405Z,2.13
2019-05-18T21:20:40.089Z,1.93
2019-05-18T21:23:10.546Z,2.20
2019-05-18T21:25:40.960Z,1.90
2019-05-18T21:28:11.396Z,1.83
2019-05-18T21:30:41.861Z,2.10
2019-05-18T21:33:12.313Z,2.40
2019-05-18T21:35:42.765Z,2.10
2019-05-18T21:38:13.166Z,2.00
2019-05-18T21:40:43.484Z,2.50
2019-05-18T21:43:13.928Z,2.20
2019-05-18T21:45:44.307Z,2.40
2019-05-18T21:48:14.662Z,2.47
2019-05-18T21:50:45.005Z,2.43
2019-05-18T21:53:15.362Z,2.77
2019-05-18T21:55:45.795Z,2.60
2019-05-18T21:58:16.182Z,2.70
2019-05-18T22:00:49.690Z,2.83
2019-05-18T22:03:20.125Z,2.60
2019-05-18T22:05:50.471Z,3.33
2019-05-18T22:08:20.927Z,3.20
2019-05-18T22:10:51.335Z,2.97
2019-05-18T22:13:21.770Z,3.40
2019-05-18T22:15:52.191Z,3.40
2019-05-18T22:18:24.794Z,3.33
2019-05-18T22:20:54.835Z,3.30
2019-05-18T22:23:25.120Z,3.20
2019-05-18T22:25:57.149Z,3.53
2019-05-18T22:28:27.932Z,3.70
2019-05-18T22:30:58.311Z,3.37
2019-05-18T22:33:28.727Z,3.57
2019-05-18T22:35:59.063Z,3.63
2019-05-18T22:38:29.536Z,3.80
2019-05-18T22:40:59.961Z,3.97
2019-05-18T22:43:30.361Z,3.93
2019-05-18T22:46:00.781Z,4.60
2019-05-18T22:48:40.811Z,4.30
2019-05-18T22:51:03.379Z,3.70
2019-05-18T22:53:33.821Z,3.73
2019-05-18T22:56:04.253Z,4.40
2019-05-18T22:58:34.648Z,4.13
2019-05-18T23:01:05.284Z,4.00
2019-05-18T23:03:35.740Z,4.40
2019-05-18T23:06:06.210Z,4.07
2019-05-18T23:08:36.635Z,3.93
2019-05-18T23:11:07.062Z,3.83
2019-05-18T23:13:37.528Z,4.20
2019-05-18T23:16:07.954Z,4.17
2019-05-18T23:18:38.352Z,4.20
2019-05-18T23:21:08.761Z,4.30
2019-05-18T23:23:39.217Z,4.47
2019-05-18T23:26:11.646Z,4.47
2019-05-18T23:28:41.772Z,4.23
2019-05-18T23:31:12.224Z,4.30
2019-05-18T23:33:42.691Z,4.47
2019-05-18T23:36:13.942Z,4.47
2019-05-18T23:38:44.400Z,4.27
2019-05-18T23:41:14.783Z,4.60
2019-05-18T23:43:45.211Z,4.50
2019-05-18T23:46:15.554Z,4.17
2019-05-18T23:48:45.906Z,4.50
2019-05-18T23:51:16.274Z,5.10
2019-05-18T23:53:46.662Z,4.40
2019-05-18T23:56:17.114Z,4.13
2019-05-18T23:58:47.512Z,4.60
